createdAt,value
2022-11-07T00:02:12.759Z,13.88
2022-11-07T00:04:41.228Z,13.94
2022-11-07T00:07:09.211Z,13.97
2022-11-07T00:09:37.718Z,14.00
2022-11-07T00:12:06.181Z,13.98
2022-11-07T00:14:34.374Z,13.97
2022-11-07T00:17:02.328Z,13.95
2022-11-07T00:19:30.416Z,13.95
2022-11-07T00:21:58.765Z,13.94
2022-11-07T00:24:26.816Z,13.94
2022-11-07T00:26:54.858Z,13.92
2022-11-07T00:29:22.879Z,13.93
2022-11-07T00:31:50.927Z,13.95
2022-11-07T00:34:18.795Z,13.96
2022-11-07T00:36:46.788Z,13.94
2022-11-07T00:39:14.900Z,13.93
2022-11-07T00:41:42.865Z,13.93
2022-11-07T00:44:10.740Z,13.95
2022-11-07T00:46:38.654Z,13.93
2022-11-07T00:49:06.788Z,13.91
2022-11-07T00:51:35.087Z,13.96
2022-11-07T00:54:05.191Z,13.98
2022-11-07T00:56:33.151Z,13.99
2022-11-07T00:59:01.172Z,13.95
2022-11-07T01:01:32.129Z,13.95
2022-11-07T01:04:19.448Z,13.93
2022-11-07T01:06:47.410Z,13.82
2022-11-07T01:09:18.365Z,13.79
2022-11-07T01:11:47.090Z,13.77
2022-11-07T01:14:17.554Z,13.75
2022-11-07T01:16:45.471Z,13.69
2022-11-07T01:19:13.474Z,13.66
2022-11-07T01:21:43.111Z,13.73
2022-11-07T01:24:12.687Z,13.76
2022-11-07T01:26:42.341Z,13.73
2022-11-07T01:29:10.532Z,13.67
2022-11-07T01:31:38.676Z,13.74
2022-11-07T01:34:06.718Z,13.72
2022-11-07T01:36:34.748Z,13.68
2022-11-07T01:39:04.281Z,13.70
2022-11-07T01:41:35.414Z,13.68
2022-11-07T01:44:23.245Z,13.64
2022-11-07T01:46:54.384Z,13.68
2022-11-07T01:49:28.416Z,13.70
2022-11-07T01:52:04.395Z,13.71
2022-11-07T01:54:37.584Z,13.72
2022-11-07T01:57:11.296Z,13.65
2022-11-07T01:59:40.722Z,13.59
2022-11-07T02:02:09.881Z,13.63
2022-11-07T02:04:38.136Z,13.62
2022-11-07T02:07:18.720Z,13.62
2022-11-07T02:09:47.173Z,13.65
2022-11-07T02:12:16.248Z,13.59
2022-11-07T02:14:44.349Z,13.60
2022-11-07T02:17:13.607Z,13.57
2022-11-07T02:19:48.732Z,13.58
2022-11-07T02:22:35.952Z,13.52
2022-11-07T02:25:08.600Z,13.54
2022-11-07T02:27:37.495Z,13.56
2022-11-07T02:30:10.321Z,13.57
2022-11-07T02:32:38.411Z,13.57
2022-11-07T02:35:28.732Z,13.59
2022-11-07T02:37:56.771Z,13.62
2022-11-07T02:40:25.682Z,13.58
2022-11-07T02:42:54.401Z,13.57
2022-11-07T02:45:27.963Z,13.62
2022-11-07T02:47:56.154Z,13.63
2022-11-07T02:50:24.283Z,13.59
2022-11-07T02:52:52.455Z,13.60
2022-11-07T02:55:20.619Z,13.55
2022-11-07T02:57:48.766Z,13.48
2022-11-07T03:00:16.919Z,13.52
2022-11-07T03:02:47.341Z,13.51
2022-11-07T03:05:18.058Z,13.56
2022-11-07T03:07:48.311Z,13.54
2022-11-07T03:10:17.738Z,13.54
2022-11-07T03:12:45.633Z,13.54
2022-11-07T03:15:14.632Z,13.57
2022-11-07T03:17:42.509Z,13.61
2022-11-07T03:20:10.961Z,13.54
2022-11-07T03:22:39.876Z,13.55
2022-11-07T03:25:08.601Z,13.56
2022-11-07T03:27:36.533Z,13.55
2022-11-07T03:30:04.744Z,13.55
2022-11-07T03:32:34.859Z,13.50
2022-11-07T03:35:02.793Z,13.47
2022-11-07T03:37:30.752Z,13.50
2022-11-07T03:39:58.622Z,13.46
2022-11-07T03:42:26.478Z,13.48
2022-11-07T03:44:54.333Z,13.45
2022-11-07T03:47:22.328Z,13.45
2022-11-07T03:49:50.229Z,13.43
2022-11-07T03:52:18.099Z,13.46
2022-11-07T03:54:46.051Z,13.39
2022-11-07T03:57:14.031Z,13.41
2022-11-07T03:59:41.875Z,13.38
2022-11-07T04:02:09.948Z,13.40
2022-11-07T04:04:38.201Z,13.43
2022-11-07T04:07:06.064Z,13.38
2022-11-07T04:09:34.088Z,13.41
2022-11-07T04:12:20.545Z,13.39
2022-11-07T04:15:07.051Z,13.40
2022-11-07T04:17:34.895Z,13.38
2022-11-07T04:20:03.918Z,13.40
2022-11-07T04:22:31.932Z,13.40
2022-11-07T04:24:59.774Z,13.45
2022-11-07T04:27:43.005Z,13.44
2022-11-07T04:30:20.008Z,13.44
2022-11-07T04:32:53.415Z,13.44
2022-11-07T04:35:23.366Z,13.49
2022-11-07T04:37:52.730Z,13.47
2022-11-07T04:40:21.620Z,13.48
2022-11-07T04:42:59.603Z,13.42
2022-11-07T04:45:27.835Z,13.39
2022-11-07T04:47:56.038Z,13.45
2022-11-07T04:50:24.069Z,13.52
2022-11-07T04:52:52.307Z,13.53
2022-11-07T04:55:23.847Z,13.47
2022-11-07T04:57:53.303Z,13.43
2022-11-07T05:00:23.087Z,13.41
2022-11-07T05:02:51.266Z,13.47
2022-11-07T05:05:19.750Z,13.48
2022-11-07T05:07:48.289Z,13.49
2022-11-07T05:10:19.015Z,13.47
2022-11-07T05:12:48.285Z,13.48
2022-11-07T05:15:17.987Z,13.44
2022-11-07T05:17:47.196Z,13.42
2022-11-07T05:20:22.748Z,13.47
2022-11-07T05:23:09.108Z,13.44
2022-11-07T05:25:36.983Z,13.45
2022-11-07T05:28:05.922Z,13.43
2022-11-07T05:30:34.130Z,13.37
2022-11-07T05:33:02.092Z,13.35
2022-11-07T05:35:29.975Z,13.34
2022-11-07T05:37:58.088Z,13.30
2022-11-07T05:40:26.049Z,13.32
2022-11-07T05:43:02.987Z,13.31
2022-11-07T05:45:32.257Z,13.30
2022-11-07T05:48:02.294Z,13.35
2022-11-07T05:50:30.675Z,13.44
2022-11-07T05:52:58.918Z,13.41
2022-11-07T05:55:27.424Z,13.38
2022-11-07T05:57:56.198Z,13.32
2022-11-07T06:00:24.518Z,13.39
2022-11-07T06:02:57.865Z,13.39
2022-11-07T06:05:27.194Z,13.44
2022-11-07T06:07:55.828Z,13.42
2022-11-07T06:10:24.490Z,13.41
2022-11-07T06:13:04.143Z,13.38
2022-11-07T06:15:34.114Z,13.40
2022-11-07T06:18:05.031Z,13.41
2022-11-07T06:20:34.775Z,13.46
2022-11-07T06:23:04.791Z,13.52
2022-11-07T06:25:33.965Z,13.52
2022-11-07T06:28:09.699Z,13.52
2022-11-07T06:30:39.215Z,13.54
2022-11-07T06:33:11.408Z,13.59
2022-11-07T06:35:39.391Z,13.60
2022-11-07T06:38:10.325Z,13.66
2022-11-07T06:40:40.841Z,13.64
2022-11-07T06:43:16.348Z,13.57
2022-11-07T11:25:20.944Z,18.67
2022-11-07T16:16:26.435Z,14.03
2022-11-07T16:18:54.520Z,13.98
2022-11-07T16:21:22.599Z,13.95
2022-11-07T16:23:50.558Z,13.97
2022-11-07T16:26:26.984Z,13.98
2022-11-07T16:28:54.993Z,13.98
2022-11-07T16:31:22.855Z,13.97
2022-11-07T16:33:50.947Z,13.98
2022-11-07T16:36:18.979Z,13.96
2022-11-07T16:38:46.895Z,13.95
2022-11-07T16:41:16.972Z,13.94
2022-11-07T16:43:45.966Z,13.89
2022-11-07T16:46:19.895Z,13.79
2022-11-07T16:48:50.930Z,13.76
2022-11-07T16:51:20.925Z,13.79
2022-11-07T16:53:49.306Z,13.73
2022-11-07T16:56:47.245Z,13.70
2022-11-07T16:59:23.937Z,13.71
2022-11-07T17:01:53.659Z,13.71
2022-11-07T17:04:21.709Z,13.75
2022-11-07T17:06:49.816Z,13.80
2022-11-07T17:09:20.512Z,13.85
2022-11-07T17:11:49.069Z,13.86
2022-11-07T17:14:18.445Z,13.85
2022-11-07T17:16:48.342Z,13.89
2022-11-07T17:19:16.505Z,13.93
2022-11-07T17:21:48.489Z,13.96
2022-11-07T17:24:16.848Z,14.00
2022-11-07T17:26:44.686Z,14.02
2022-11-07T17:29:13.693Z,13.99
2022-11-07T17:31:42.443Z,13.97
2022-11-07T17:34:10.579Z,13.99
2022-11-07T17:36:46.870Z,14.02
2022-11-07T17:39:20.759Z,14.02
2022-11-07T17:41:50.213Z,13.98
2022-11-07T17:44:19.669Z,13.97
2022-11-07T17:46:49.762Z,13.93
2022-11-07T17:49:20.697Z,13.92
2022-11-07T17:51:48.633Z,13.91
2022-11-07T17:54:16.542Z,13.90
2022-11-07T17:56:44.478Z,13.93
2022-11-07T17:59:15.300Z,13.93
2022-11-07T18:01:44.626Z,13.95
2022-11-07T18:04:13.800Z,13.93
2022-11-07T18:06:43.076Z,13.92
2022-11-07T18:09:16.156Z,13.93
2022-11-07T18:11:45.040Z,13.95
2022-11-07T18:14:14.158Z,13.98
2022-11-07T18:16:42.098Z,14.05
2022-11-07T18:19:11.539Z,14.08
2022-11-07T18:21:39.393Z,14.09
2022-11-07T18:24:07.815Z,14.11
2022-11-07T18:26:37.027Z,14.12
2022-11-07T18:29:09.692Z,14.14
2022-11-07T18:31:38.930Z,14.08
2022-11-07T18:34:11.204Z,13.99
2022-11-07T18:36:41.488Z,13.85
2022-11-07T18:39:19.036Z,13.75
2022-11-07T18:41:47.821Z,13.74
2022-11-07T18:44:17.815Z,13.73
2022-11-07T18:46:46.757Z,13.73
2022-11-07T18:49:16.220Z,13.72
2022-11-07T18:51:44.426Z,13.71
2022-11-07T18:54:15.635Z,13.69
2022-11-07T18:56:43.693Z,13.70
2022-11-07T18:59:11.802Z,13.72
2022-11-07T19:01:40.173Z,13.71
2022-11-07T19:04:10.326Z,13.72
2022-11-07T19:06:55.612Z,13.71
2022-11-07T19:09:26.201Z,13.73
2022-11-07T19:11:54.803Z,13.74
2022-11-07T19:14:23.541Z,13.71
2022-11-07T19:16:51.538Z,13.74
2022-11-07T19:19:20.582Z,13.72
2022-11-07T19:21:48.846Z,13.76
2022-11-07T19:24:16.957Z,13.74
2022-11-07T19:26:44.874Z,13.74
2022-11-07T19:29:12.818Z,13.72
2022-11-07T19:31:40.759Z,13.71
2022-11-07T19:34:09.245Z,13.69
2022-11-07T19:36:37.343Z,13.68
2022-11-07T19:39:05.372Z,13.61
2022-11-07T19:41:33.306Z,13.51
2022-11-07T19:44:04.367Z,13.48
2022-11-07T19:46:32.334Z,13.49
2022-11-07T19:49:00.198Z,13.50
2022-11-07T19:51:28.480Z,13.46
2022-11-07T19:53:59.739Z,13.43
2022-11-07T19:56:32.031Z,13.43
2022-11-07T19:59:03.471Z,13.44
2022-11-07T20:01:34.095Z,13.43
2022-11-07T20:04:04.559Z,13.45
2022-11-07T20:06:35.722Z,13.49
2022-11-07T20:09:09.277Z,13.51
2022-11-07T20:11:37.896Z,13.55
2022-11-07T20:14:06.684Z,13.56
2022-11-07T20:16:37.281Z,13.59
2022-11-07T20:19:05.683Z,13.58
2022-11-07T20:21:34.454Z,13.59
2022-11-07T20:24:06.496Z,13.58
2022-11-07T20:26:35.067Z,13.58
2022-11-07T20:29:04.111Z,13.58
2022-11-07T20:31:36.698Z,13.55
2022-11-07T20:34:07.947Z,13.53
2022-11-07T20:36:35.924Z,13.50
2022-11-07T20:39:04.572Z,13.48
2022-11-07T20:41:32.871Z,13.46
2022-11-07T20:44:04.361Z,13.44
2022-11-07T20:46:37.004Z,13.42
2022-11-07T20:49:07.823Z,13.38
2022-11-07T20:51:35.773Z,13.36
2022-11-07T20:54:03.873Z,13.33
2022-11-07T20:56:33.963Z,13.32
2022-11-07T20:59:02.066Z,13.29
2022-11-07T21:01:36.307Z,13.23
2022-11-07T21:04:07.218Z,13.09
2022-11-07T21:06:35.720Z,13.01
2022-11-07T21:09:04.593Z,12.98
2022-11-07T21:11:32.930Z,12.96
2022-11-07T21:14:01.202Z,12.94
2022-11-07T21:16:29.585Z,12.95
2022-11-07T21:18:57.663Z,12.95
2022-11-07T21:21:27.945Z,12.81
2022-11-07T21:23:57.650Z,12.66
2022-11-07T21:26:28.909Z,12.56
2022-11-07T21:28:56.804Z,12.56
2022-11-07T21:31:28.574Z,12.58
2022-11-07T21:33:57.161Z,12.61
2022-11-07T21:36:27.564Z,12.61
2022-11-07T21:38:56.637Z,12.64
2022-11-07T21:41:24.852Z,12.65
2022-11-07T21:43:52.847Z,12.64
2022-11-07T21:46:27.033Z,12.57
2022-11-07T21:48:56.073Z,12.50
2022-11-07T21:51:28.731Z,12.53
2022-11-07T21:53:58.426Z,12.60
2022-11-07T21:56:29.069Z,12.64
2022-11-07T21:59:00.056Z,12.71
2022-11-07T22:01:29.318Z,12.77
2022-11-07T22:04:07.437Z,12.81
2022-11-07T22:06:39.005Z,12.85
2022-11-07T22:09:11.066Z,12.84
2022-11-07T22:11:38.997Z,12.88
2022-11-07T22:14:07.212Z,12.89
2022-11-07T22:16:36.242Z,12.89
2022-11-07T22:19:09.747Z,12.92
2022-11-07T22:21:40.728Z,12.92
2022-11-07T22:24:09.299Z,12.92
2022-11-07T22:26:37.561Z,12.92
2022-11-07T22:29:05.578Z,12.90
2022-11-07T22:31:33.630Z,12.89
2022-11-07T22:34:02.349Z,12.86
2022-11-07T22:36:30.449Z,12.84
2022-11-07T22:38:58.822Z,12.79
2022-11-07T22:41:29.134Z,12.77
2022-11-07T22:43:58.515Z,12.72
2022-11-07T22:46:30.151Z,12.67
2022-11-07T22:49:00.484Z,12.63
2022-11-07T22:51:37.463Z,12.64
2022-11-07T22:54:12.706Z,12.64
2022-11-07T22:56:41.340Z,12.66
2022-11-07T22:59:17.162Z,12.67
2022-11-07T23:01:45.162Z,12.69
2022-11-07T23:04:15.347Z,12.68
2022-11-07T23:06:43.844Z,12.63
2022-11-07T23:09:16.284Z,12.60
2022-11-07T23:11:46.506Z,12.59
2022-11-07T23:14:19.670Z,12.55
2022-11-07T23:16:49.853Z,12.55
2022-11-07T23:19:20.855Z,12.51
2022-11-07T23:21:49.459Z,12.56
2022-11-07T23:24:21.329Z,12.52
2022-11-07T23:26:50.000Z,12.42
2022-11-07T23:29:24.124Z,12.40
2022-11-07T23:31:52.578Z,12.43
2022-11-07T23:34:21.823Z,12.46
2022-11-07T23:36:51.231Z,12.48
2022-11-07T23:39:21.665Z,12.52
2022-11-07T23:41:51.827Z,12.57
2022-11-07T23:44:19.730Z,12.59
2022-11-07T23:47:06.575Z,12.65
2022-11-07T23:49:54.364Z,12.69
2022-11-07T23:52:22.435Z,12.73
2022-11-07T23:55:08.903Z,12.78
2022-11-07T23:57:57.751Z,12.79
